Main page
METAR-TAF:

METAR-TAF

Airports :

Leh, India

Kushok Bakula Rimpochee Airport

latitude: 34-08-09N, longitude: 077-32-47E, elevation: 3256 m

Current weather observation

The report was made 4 hours and 17 minutes ago, at 00:30 UTC
Wind 7 kt from the Northwest
Temperature 18°C
Humidity 26%
Pressure 1022 hPa
Visibility: 6000 m
Few clouds at a height of 10000 ft
Scattered clouds at a height of 15000 ft

METAR: VILH 240030Z 31007KT 6000 FEW100 SCT150 18/M02 Q1022 NOSIG RMK AC

Time: 10:17 (04:47 UTC)


TAF: missing

Weather observations and forecasts of more than 4000 airports (METAR and TAF reports).

The available stations are represented by yellow and red dots on the map.

Hover mouse over dot to see the name of the station.

Then click to see weather observations and forecasts.

To change the map : click on the green buttons with a black cross to zoom in, on the green button with a dash to zoom out, or on the green arrows for adjacent maps.


METAR-TAF: